Big Bear Station Historical Data
Daily Summary for April 3, 2019 Units:  English    Metric   Both
Next Day »
Daily Weekly Monthly Yearly Custom
  High: Low: Average:
Temperature: 54.7 °F 28.4 °F 39.6 °F
Dew Point: 42.4 °F 27.6 °F 34.6 °F
Humidity: 97% 59% 84%
Wind Speed: 4.7mph 0.0mph 1.1mph
Wind Gust: -999.0mph - -
Wind- - WSW
Pressure: 23.49 in 23.35 in -
Precipitation: 0.00 in    
Historical Graphs
 
 
Tabular Data for April 3, 2019
Time Temperature Dew Point Pressure Wind Wind Speed Wind Gust Humidity Rainfall Rate (Hourly)
00:12 31.6 °F 29.0 °F 23.38 in SSE 1.7 mph -999.0 mph 90% 0.00 in
00:27 31.5 °F 28.9 °F 23.37 in Calm   -999.0 mph 90% 0.00 in
00:42 31.5 °F 29.7 °F 23.38 in Calm   -999.0 mph 93% 0.00 in
00:57 30.7 °F 28.7 °F 23.37 in Calm   -999.0 mph 92% 0.00 in
01:12 30.6 °F 28.8 °F 23.37 in Calm   -999.0 mph 93% 0.00 in
01:28 30.0 °F 28.2 °F 23.37 in Calm   -999.0 mph 93% 0.00 in
01:43 30.2 °F 28.7 °F 23.37 in North 4.2 mph -999.0 mph 94% 0.00 in
01:58 30.7 °F 29.4 °F 23.37 in Calm   -999.0 mph 95% 0.00 in
02:13 30.6 °F 29.3 °F 23.37 in Calm   -999.0 mph 95% 0.00 in
02:28 30.6 °F 29.3 °F 23.36 in NNW 2.2 mph -999.0 mph 95% 0.00 in
02:44 30.9 °F 29.6 °F 23.36 in WSW 1.1 mph -999.0 mph 95% 0.00 in
02:59 31.1 °F 29.6 °F 23.35 in NE 2.2 mph -999.0 mph 94% 0.00 in
03:14 31.1 °F 29.0 °F 23.36 in Calm   -999.0 mph 92% 0.00 in
03:29 31.1 °F 29.6 °F 23.37 in South 3.7 mph -999.0 mph 94% 0.00 in
03:45 30.9 °F 29.9 °F 23.36 in NNE 2.2 mph -999.0 mph 96% 0.00 in
04:00 31.1 °F 30.3 °F 23.37 in Calm   -999.0 mph 97% 0.00 in
04:15 30.9 °F 30.1 °F 23.37 in Calm   -999.0 mph 97% 0.00 in
04:30 30.7 °F 29.9 °F 23.37 in Calm   -999.0 mph 97% 0.00 in
04:46 30.9 °F 30.1 °F 23.38 in Calm   -999.0 mph 97% 0.00 in
05:01 30.9 °F 30.1 °F 23.38 in Calm   -999.0 mph 97% 0.00 in
05:16 30.9 °F 30.1 °F 23.38 in Calm   -999.0 mph 97% 0.00 in
05:31 30.6 °F 29.9 °F 23.38 in Calm   -999.0 mph 97% 0.00 in
05:46 30.0 °F 29.3 °F 23.39 in Calm   -999.0 mph 97% 0.00 in
06:02 29.3 °F 28.3 °F 23.39 in Calm   -999.0 mph 96% 0.00 in
06:17 28.9 °F 27.9 °F 23.39 in Calm   -999.0 mph 96% 0.00 in
06:32 28.6 °F 27.6 °F 23.40 in Calm   -999.0 mph 96% 0.00 in
06:47 28.6 °F 27.9 °F 23.40 in Calm   -999.0 mph 97% 0.00 in
07:02 28.4 °F 27.7 °F 23.41 in Calm   -999.0 mph 97% 0.00 in
07:18 28.6 °F 27.9 °F 23.41 in Calm   -999.0 mph 97% 0.00 in
07:33 29.1 °F 28.4 °F 23.41 in Calm   -999.0 mph 97% 0.00 in
07:48 29.3 °F 28.6 °F 23.41 in Calm   -999.0 mph 97% 0.00 in
08:03 30.0 °F 29.3 °F 23.42 in Calm   -999.0 mph 97% 0.00 in
08:19 30.9 °F 30.1 °F 23.42 in Calm   -999.0 mph 97% 0.00 in
08:34 32.7 °F 31.9 °F 23.43 in Calm   -999.0 mph 97% 0.00 in
08:49 35.1 °F 33.8 °F 23.43 in Calm   -999.0 mph 95% 0.00 in
09:04 36.3 °F 33.1 °F 23.43 in Calm   -999.0 mph 88% 0.00 in
09:19 37.6 °F 33.2 °F 23.43 in Calm   -999.0 mph 84% 0.00 in
09:35 39.2 °F 33.9 °F 23.43 in Calm   -999.0 mph 81% 0.00 in
09:50 41.4 °F 33.7 °F 23.43 in Calm   -999.0 mph 74% 0.00 in
10:05 43.3 °F 33.8 °F 23.44 in Calm   -999.0 mph 69% 0.00 in
10:20 43.3 °F 35.9 °F 23.45 in WNW 1.7 mph -999.0 mph 75% 0.00 in
10:35 43.7 °F 37.0 °F 23.44 in WNW 3.2 mph -999.0 mph 77% 0.00 in
10:51 44.1 °F 37.7 °F 23.45 in WNW 2.7 mph -999.0 mph 78% 0.00 in
11:06 45.9 °F 38.4 °F 23.45 in WNW 3.2 mph -999.0 mph 75% 0.00 in
11:22 48.9 °F 38.0 °F 23.45 in Calm   -999.0 mph 66% 0.00 in
11:37 50.4 °F 39.9 °F 23.45 in NNW 4.2 mph -999.0 mph 67% 0.00 in
11:52 51.8 °F 37.9 °F 23.46 in WSW 4.7 mph -999.0 mph 59% 0.00 in
12:08 52.3 °F 38.8 °F 23.45 in West 2.7 mph -999.0 mph 60% 0.00 in
12:23 52.3 °F 40.1 °F 23.45 in WNW 2.2 mph -999.0 mph 63% 0.00 in
12:38 51.6 °F 40.2 °F 23.46 in NW 4.7 mph -999.0 mph 65% 0.00 in
12:54 52.7 °F 40.5 °F 23.45 in WNW 2.2 mph -999.0 mph 63% 0.00 in
13:09 54.0 °F 40.9 °F 23.45 in WNW 4.7 mph -999.0 mph 61% 0.00 in
13:24 53.4 °F 40.7 °F 23.45 in West 4.7 mph -999.0 mph 62% 0.00 in
13:39 52.5 °F 40.3 °F 23.45 in SW 3.7 mph -999.0 mph 63% 0.00 in
13:55 53.1 °F 41.2 °F 23.45 in NE 3.7 mph -999.0 mph 64% 0.00 in
14:10 54.3 °F 42.0 °F 23.45 in West 2.7 mph -999.0 mph 63% 0.00 in
14:25 54.7 °F 41.9 °F 23.45 in WNW 3.7 mph -999.0 mph 62% 0.00 in
14:41 53.2 °F 40.9 °F 23.45 in WNW 3.7 mph -999.0 mph 63% 0.00 in
14:56 52.5 °F 40.7 °F 23.45 in WNW 1.1 mph -999.0 mph 64% 0.00 in
15:11 52.2 °F 41.6 °F 23.45 in East 4.2 mph -999.0 mph 67% 0.00 in
15:27 50.4 °F 41.4 °F 23.45 in West 3.7 mph -999.0 mph 71% 0.00 in
15:42 50.9 °F 41.5 °F 23.45 in SW 2.2 mph -999.0 mph 70% 0.00 in
15:58 50.4 °F 41.4 °F 23.45 in NNE 2.2 mph -999.0 mph 71% 0.00 in
16:13 48.7 °F 41.1 °F 23.45 in West 2.2 mph -999.0 mph 75% 0.00 in
16:28 49.5 °F 41.2 °F 23.45 in North 2.7 mph -999.0 mph 73% 0.00 in
16:44 50.0 °F 41.3 °F 23.45 in SSW 1.1 mph -999.0 mph 72% 0.00 in
16:59 53.1 °F 42.4 °F 23.45 in Calm   -999.0 mph 67% 0.00 in
17:14 52.9 °F 41.9 °F 23.45 in WNW 4.7 mph -999.0 mph 66% 0.00 in
17:29 52.3 °F 41.7 °F 23.45 in East 1.1 mph -999.0 mph 67% 0.00 in
17:44 51.3 °F 41.5 °F 23.45 in Calm   -999.0 mph 69% 0.00 in
18:00 48.6 °F 41.0 °F 23.45 in Calm   -999.0 mph 75% 0.00 in
18:15 45.3 °F 39.8 °F 23.45 in Calm   -999.0 mph 81% 0.00 in
18:31 44.8 °F 39.3 °F 23.45 in Calm   -999.0 mph 81% 0.00 in
18:46 43.9 °F 39.1 °F 23.45 in Calm   -999.0 mph 83% 0.00 in
19:01 43.0 °F 38.5 °F 23.46 in Calm   -999.0 mph 84% 0.00 in
19:16 41.2 °F 37.6 °F 23.45 in Calm   -999.0 mph 87% 0.00 in
19:31 41.0 °F 37.7 °F 23.46 in Calm   -999.0 mph 88% 0.00 in
19:47 40.6 °F 37.3 °F 23.46 in Calm   -999.0 mph 88% 0.00 in
20:02 40.1 °F 36.8 °F 23.46 in Calm   -999.0 mph 88% 0.00 in
20:17 38.8 °F 36.1 °F 23.47 in Calm   -999.0 mph 90% 0.00 in
20:32 38.8 °F 36.1 °F 23.47 in Calm   -999.0 mph 90% 0.00 in
20:47 38.1 °F 35.7 °F 23.48 in Calm   -999.0 mph 91% 0.00 in
21:03 38.1 °F 35.7 °F 23.48 in Calm   -999.0 mph 91% 0.00 in
21:18 37.4 °F 34.5 °F 23.48 in Calm   -999.0 mph 89% 0.00 in
21:33 36.9 °F 33.7 °F 23.49 in Calm   -999.0 mph 88% 0.00 in
21:48 36.3 °F 33.1 °F 23.49 in Calm   -999.0 mph 88% 0.00 in
22:04 36.1 °F 33.2 °F 23.49 in Calm   -999.0 mph 89% 0.00 in
22:19 35.6 °F 32.7 °F 23.49 in Calm   -999.0 mph 89% 0.00 in
22:34 35.4 °F 32.5 °F 23.49 in Calm   -999.0 mph 89% 0.00 in
22:49 34.7 °F 32.1 °F 23.49 in Calm   -999.0 mph 90% 0.00 in
23:04 34.3 °F 31.7 °F 23.48 in Calm   -999.0 mph 90% 0.00 in
23:20 34.0 °F 31.4 °F 23.48 in Calm   -999.0 mph 90% 0.00 in
23:35 33.6 °F 30.7 °F 23.48 in Calm   -999.0 mph 89% 0.00 in
23:50 33.6 °F 31.0 °F 23.48 in Calm   -999.0 mph 90% 0.00 in
Big Bear CA Weather